sensor_id;sensor_type;location;lat;lon;timestamp;P1;durP1;ratioP1;P2;durP2;ratioP2
58697;SDS011;44475;53.206;-6.106;2023-06-14T00:02:10;5.32;;;3.83;;
58697;SDS011;44475;53.206;-6.106;2023-06-14T00:04:36;7.18;;;3.70;;
58697;SDS011;44475;53.206;-6.106;2023-06-14T00:07:04;4.82;;;3.83;;
58697;SDS011;44475;53.206;-6.106;2023-06-14T00:09:33;4.68;;;3.80;;
58697;SDS011;44475;53.206;-6.106;2023-06-14T00:12:00;4.78;;;4.10;;
58697;SDS011;44475;53.206;-6.106;2023-06-14T00:14:26;5.28;;;4.00;;
58697;SDS011;44475;53.206;-6.106;2023-06-14T00:16:52;5.38;;;3.92;;
58697;SDS011;44475;53.206;-6.106;2023-06-14T00:19:23;5.00;;;3.97;;
58697;SDS011;44475;53.206;-6.106;2023-06-14T00:21:50;5.75;;;3.72;;
58697;SDS011;44475;53.206;-6.106;2023-06-14T00:24:17;4.97;;;4.20;;
58697;SDS011;44475;53.206;-6.106;2023-06-14T00:26:44;4.90;;;4.00;;
58697;SDS011;44475;53.206;-6.106;2023-06-14T00:29:11;6.20;;;4.10;;
58697;SDS011;44475;53.206;-6.106;2023-06-14T00:31:37;5.60;;;4.20;;
58697;SDS011;44475;53.206;-6.106;2023-06-14T00:34:03;7.97;;;4.10;;
58697;SDS011;44475;53.206;-6.106;2023-06-14T00:36:29;5.22;;;4.10;;
58697;SDS011;44475;53.206;-6.106;2023-06-14T00:38:56;4.70;;;3.97;;
58697;SDS011;44475;53.206;-6.106;2023-06-14T00:41:22;5.30;;;4.00;;
58697;SDS011;44475;53.206;-6.106;2023-06-14T00:43:49;4.75;;;3.83;;
58697;SDS011;44475;53.206;-6.106;2023-06-14T00:46:16;4.70;;;3.90;;
58697;SDS011;44475;53.206;-6.106;2023-06-14T00:48:42;5.72;;;4.10;;
58697;SDS011;44475;53.206;-6.106;2023-06-14T00:51:09;7.18;;;4.03;;
58697;SDS011;44475;53.206;-6.106;2023-06-14T00:53:36;5.75;;;4.00;;
58697;SDS011;44475;53.206;-6.106;2023-06-14T00:56:04;5.78;;;3.65;;
58697;SDS011;44475;53.206;-6.106;2023-06-14T00:58:31;5.75;;;4.20;;
58697;SDS011;44475;53.206;-6.106;2023-06-14T01:00:58;5.25;;;4.03;;
58697;SDS011;44475;53.206;-6.106;2023-06-14T01:03:24;5.60;;;4.07;;
58697;SDS011;44475;53.206;-6.106;2023-06-14T01:05:56;5.40;;;4.20;;
58697;SDS011;44475;53.206;-6.106;2023-06-14T01:08:56;4.55;;;3.72;;
58697;SDS011;44475;53.206;-6.106;2023-06-14T01:11:31;4.93;;;4.18;;
58697;SDS011;44475;53.206;-6.106;2023-06-14T01:14:04;5.07;;;3.90;;
58697;SDS011;44475;53.206;-6.106;2023-06-14T01:16:33;5.90;;;4.05;;
58697;SDS011;44475;53.206;-6.106;2023-06-14T01:19:01;6.15;;;4.03;;
58697;SDS011;44475;53.206;-6.106;2023-06-14T01:21:28;5.15;;;4.00;;
58697;SDS011;44475;53.206;-6.106;2023-06-14T01:23:55;5.55;;;3.78;;
58697;SDS011;44475;53.206;-6.106;2023-06-14T01:26:21;4.43;;;3.90;;
58697;SDS011;44475;53.206;-6.106;2023-06-14T01:28:50;5.03;;;4.05;;
58697;SDS011;44475;53.206;-6.106;2023-06-14T01:31:22;5.15;;;4.07;;
58697;SDS011;44475;53.206;-6.106;2023-06-14T01:33:50;6.53;;;4.10;;
58697;SDS011;44475;53.206;-6.106;2023-06-14T01:36:20;6.35;;;3.97;;
58697;SDS011;44475;53.206;-6.106;2023-06-14T01:38:48;5.68;;;4.20;;
58697;SDS011;44475;53.206;-6.106;2023-06-14T01:41:15;4.88;;;4.07;;
58697;SDS011;44475;53.206;-6.106;2023-06-14T01:43:43;6.22;;;3.88;;
58697;SDS011;44475;53.206;-6.106;2023-06-14T01:46:11;5.32;;;4.28;;
58697;SDS011;44475;53.206;-6.106;2023-06-14T01:48:38;5.28;;;4.30;;
58697;SDS011;44475;53.206;-6.106;2023-06-14T01:51:04;5.63;;;4.15;;
58697;SDS011;44475;53.206;-6.106;2023-06-14T01:53:31;4.90;;;4.00;;
58697;SDS011;44475;53.206;-6.106;2023-06-14T01:55:57;4.85;;;4.03;;
58697;SDS011;44475;53.206;-6.106;2023-06-14T01:58:24;5.90;;;3.95;;
58697;SDS011;44475;53.206;-6.106;2023-06-14T02:00:51;5.65;;;4.15;;
58697;SDS011;44475;53.206;-6.106;2023-06-14T02:03:20;4.57;;;3.88;;
58697;SDS011;44475;53.206;-6.106;2023-06-14T02:05:48;4.80;;;4.10;;
58697;SDS011;44475;53.206;-6.106;2023-06-14T02:08:16;6.90;;;4.13;;
58697;SDS011;44475;53.206;-6.106;2023-06-14T02:10:42;5.93;;;4.28;;
58697;SDS011;44475;53.206;-6.106;2023-06-14T02:13:09;4.47;;;3.90;;
58697;SDS011;44475;53.206;-6.106;2023-06-14T02:15:37;5.45;;;4.10;;
58697;SDS011;44475;53.206;-6.106;2023-06-14T02:18:03;5.07;;;4.30;;
58697;SDS011;44475;53.206;-6.106;2023-06-14T02:20:32;5.88;;;4.22;;
58697;SDS011;44475;53.206;-6.106;2023-06-14T02:22:58;5.28;;;4.18;;
58697;SDS011;44475;53.206;-6.106;2023-06-14T02:25:25;4.63;;;4.13;;
58697;SDS011;44475;53.206;-6.106;2023-06-14T02:27:53;4.80;;;4.07;;
58697;SDS011;44475;53.206;-6.106;2023-06-14T02:30:20;5.20;;;4.30;;
58697;SDS011;44475;53.206;-6.106;2023-06-14T02:32:47;5.00;;;3.97;;
58697;SDS011;44475;53.206;-6.106;2023-06-14T02:35:13;5.13;;;4.10;;
58697;SDS011;44475;53.206;-6.106;2023-06-14T02:37:40;5.57;;;4.30;;
58697;SDS011;44475;53.206;-6.106;2023-06-14T02:40:08;5.15;;;4.00;;
58697;SDS011;44475;53.206;-6.106;2023-06-14T02:42:35;5.68;;;4.38;;
58697;SDS011;44475;53.206;-6.106;2023-06-14T02:45:03;5.47;;;4.07;;
58697;SDS011;44475;53.206;-6.106;2023-06-14T02:47:30;5.30;;;3.95;;
58697;SDS011;44475;53.206;-6.106;2023-06-14T02:49:56;5.32;;;4.30;;
58697;SDS011;44475;53.206;-6.106;2023-06-14T02:52:22;5.60;;;4.22;;
58697;SDS011;44475;53.206;-6.106;2023-06-14T02:54:50;7.70;;;4.30;;
58697;SDS011;44475;53.206;-6.106;2023-06-14T02:57:17;5.05;;;4.10;;
58697;SDS011;44475;53.206;-6.106;2023-06-14T02:59:43;5.47;;;4.28;;
58697;SDS011;44475;53.206;-6.106;2023-06-14T03:02:10;4.90;;;4.00;;
58697;SDS011;44475;53.206;-6.106;2023-06-14T03:04:36;4.95;;;4.22;;
58697;SDS011;44475;53.206;-6.106;2023-06-14T03:07:07;5.60;;;4.35;;
58697;SDS011;44475;53.206;-6.106;2023-06-14T03:09:40;5.72;;;3.97;;
58697;SDS011;44475;53.206;-6.106;2023-06-14T03:12:09;7.00;;;4.28;;
58697;SDS011;44475;53.206;-6.106;2023-06-14T03:14:36;5.38;;;4.10;;
58697;SDS011;44475;53.206;-6.106;2023-06-14T03:17:03;4.90;;;4.03;;
58697;SDS011;44475;53.206;-6.106;2023-06-14T03:19:32;5.28;;;4.15;;
58697;SDS011;44475;53.206;-6.106;2023-06-14T03:21:58;5.15;;;4.40;;
58697;SDS011;44475;53.206;-6.106;2023-06-14T03:24:26;4.82;;;4.10;;
58697;SDS011;44475;53.206;-6.106;2023-06-14T03:26:54;5.10;;;4.25;;
58697;SDS011;44475;53.206;-6.106;2023-06-14T03:29:22;5.70;;;4.30;;
58697;SDS011;44475;53.206;-6.106;2023-06-14T03:31:57;5.10;;;4.32;;
58697;SDS011;44475;53.206;-6.106;2023-06-14T03:34:32;4.72;;;4.15;;
58697;SDS011;44475;53.206;-6.106;2023-06-14T03:36:58;5.45;;;4.15;;
58697;SDS011;44475;53.206;-6.106;2023-06-14T03:39:25;5.40;;;4.30;;
58697;SDS011;44475;53.206;-6.106;2023-06-14T03:41:51;4.93;;;3.97;;
58697;SDS011;44475;53.206;-6.106;2023-06-14T03:44:18;6.28;;;4.28;;
58697;SDS011;44475;53.206;-6.106;2023-06-14T03:46:45;5.53;;;4.22;;
58697;SDS011;44475;53.206;-6.106;2023-06-14T03:49:12;5.60;;;3.92;;
58697;SDS011;44475;53.206;-6.106;2023-06-14T03:51:39;5.10;;;4.13;;
58697;SDS011;44475;53.206;-6.106;2023-06-14T03:54:06;5.38;;;4.05;;
58697;SDS011;44475;53.206;-6.106;2023-06-14T03:56:32;5.22;;;4.40;;
58697;SDS011;44475;53.206;-6.106;2023-06-14T03:58:59;5.63;;;4.25;;
58697;SDS011;44475;53.206;-6.106;2023-06-14T04:01:28;5.07;;;4.18;;
58697;SDS011;44475;53.206;-6.106;2023-06-14T04:03:57;5.60;;;4.28;;
58697;SDS011;44475;53.206;-6.106;2023-06-14T04:06:25;5.40;;;4.18;;
58697;SDS011;44475;53.206;-6.106;2023-06-14T04:08:58;4.97;;;4.28;;
58697;SDS011;44475;53.206;-6.106;2023-06-14T04:11:29;6.88;;;4.32;;
58697;SDS011;44475;53.206;-6.106;2023-06-14T04:13:57;6.28;;;4.43;;
58697;SDS011;44475;53.206;-6.106;2023-06-14T04:16:25;4.78;;;4.05;;
58697;SDS011;44475;53.206;-6.106;2023-06-14T04:18:51;5.88;;;4.20;;
58697;SDS011;44475;53.206;-6.106;2023-06-14T04:21:20;4.93;;;4.10;;
58697;SDS011;44475;53.206;-6.106;2023-06-14T04:23:51;4.97;;;4.20;;
58697;SDS011;44475;53.206;-6.106;2023-06-14T04:26:21;5.03;;;4.20;;
58697;SDS011;44475;53.206;-6.106;2023-06-14T04:28:49;5.10;;;4.30;;
58697;SDS011;44475;53.206;-6.106;2023-06-14T04:31:17;6.93;;;4.43;;
58697;SDS011;44475;53.206;-6.106;2023-06-14T04:33:44;7.40;;;4.25;;
58697;SDS011;44475;53.206;-6.106;2023-06-14T04:36:16;6.77;;;4.50;;
58697;SDS011;44475;53.206;-6.106;2023-06-14T04:38:45;6.32;;;4.25;;
58697;SDS011;44475;53.206;-6.106;2023-06-14T04:41:12;6.90;;;4.20;;
58697;SDS011;44475;53.206;-6.106;2023-06-14T04:43:41;5.85;;;4.20;;
58697;SDS011;44475;53.206;-6.106;2023-06-14T04:46:09;5.10;;;4.22;;
58697;SDS011;44475;53.206;-6.106;2023-06-14T04:48:39;5.93;;;4.50;;
58697;SDS011;44475;53.206;-6.106;2023-06-14T04:51:09;5.97;;;4.50;;
58697;SDS011;44475;53.206;-6.106;2023-06-14T04:53:36;6.65;;;4.18;;
58697;SDS011;44475;53.206;-6.106;2023-06-14T04:56:03;6.13;;;4.40;;
58697;SDS011;44475;53.206;-6.106;2023-06-14T04:58:31;5.00;;;4.13;;
58697;SDS011;44475;53.206;-6.106;2023-06-14T05:00:58;5.95;;;4.47;;
58697;SDS011;44475;53.206;-6.106;2023-06-14T05:03:25;4.93;;;4.30;;
58697;SDS011;44475;53.206;-6.106;2023-06-14T05:05:52;5.65;;;4.53;;
58697;SDS011;44475;53.206;-6.106;2023-06-14T05:08:20;5.72;;;4.68;;
58697;SDS011;44475;53.206;-6.106;2023-06-14T05:10:49;4.50;;;3.90;;
58697;SDS011;44475;53.206;-6.106;2023-06-14T05:13:16;4.95;;;4.05;;
58697;SDS011;44475;53.206;-6.106;2023-06-14T05:15:44;5.55;;;4.10;;
58697;SDS011;44475;53.206;-6.106;2023-06-14T05:18:11;5.40;;;4.18;;
58697;SDS011;44475;53.206;-6.106;2023-06-14T05:20:38;6.20;;;3.92;;
58697;SDS011;44475;53.206;-6.106;2023-06-14T05:23:06;4.88;;;3.92;;
58697;SDS011;44475;53.206;-6.106;2023-06-14T05:25:34;5.15;;;4.18;;
58697;SDS011;44475;53.206;-6.106;2023-06-14T05:28:00;4.82;;;4.13;;
58697;SDS011;44475;53.206;-6.106;2023-06-14T05:30:27;5.10;;;4.20;;
58697;SDS011;44475;53.206;-6.106;2023-06-14T05:32:55;5.20;;;4.28;;
58697;SDS011;44475;53.206;-6.106;2023-06-14T05:35:22;4.72;;;4.20;;
58697;SDS011;44475;53.206;-6.106;2023-06-14T05:37:48;6.00;;;4.43;;
58697;SDS011;44475;53.206;-6.106;2023-06-14T05:40:15;8.27;;;4.35;;
58697;SDS011;44475;53.206;-6.106;2023-06-14T05:42:42;5.00;;;4.10;;
58697;SDS011;44475;53.206;-6.106;2023-06-14T05:45:08;5.90;;;4.38;;
58697;SDS011;44475;53.206;-6.106;2023-06-14T05:47:35;4.97;;;4.20;;
58697;SDS011;44475;53.206;-6.106;2023-06-14T05:50:01;5.68;;;4.28;;
58697;SDS011;44475;53.206;-6.106;2023-06-14T05:52:27;5.63;;;4.07;;
58697;SDS011;44475;53.206;-6.106;2023-06-14T05:54:54;4.85;;;4.10;;
58697;SDS011;44475;53.206;-6.106;2023-06-14T05:57:21;5.78;;;4.10;;
58697;SDS011;44475;53.206;-6.106;2023-06-14T05:59:47;5.55;;;4.53;;
58697;SDS011;44475;53.206;-6.106;2023-06-14T06:02:13;4.90;;;4.20;;
58697;SDS011;44475;53.206;-6.106;2023-06-14T06:04:40;6.80;;;4.35;;
58697;SDS011;44475;53.206;-6.106;2023-06-14T06:07:06;5.95;;;4.20;;
58697;SDS011;44475;53.206;-6.106;2023-06-14T06:09:33;5.20;;;4.20;;
58697;SDS011;44475;53.206;-6.106;2023-06-14T06:11:59;4.90;;;4.00;;
58697;SDS011;44475;53.206;-6.106;2023-06-14T06:14:25;5.78;;;4.18;;
58697;SDS011;44475;53.206;-6.106;2023-06-14T06:16:53;6.10;;;4.47;;
58697;SDS011;44475;53.206;-6.106;2023-06-14T06:19:19;6.70;;;4.38;;
58697;SDS011;44475;53.206;-6.106;2023-06-14T06:21:46;5.30;;;4.38;;
58697;SDS011;44475;53.206;-6.106;2023-06-14T06:24:12;6.68;;;4.40;;
58697;SDS011;44475;53.206;-6.106;2023-06-14T06:26:38;6.85;;;4.40;;
58697;SDS011;44475;53.206;-6.106;2023-06-14T06:29:05;6.97;;;4.38;;
58697;SDS011;44475;53.206;-6.106;2023-06-14T06:31:31;5.63;;;4.05;;
58697;SDS011;44475;53.206;-6.106;2023-06-14T06:33:58;6.78;;;4.40;;
58697;SDS011;44475;53.206;-6.106;2023-06-14T06:36:24;5.63;;;4.50;;
58697;SDS011;44475;53.206;-6.106;2023-06-14T06:38:51;5.75;;;4.35;;
58697;SDS011;44475;53.206;-6.106;2023-06-14T06:41:18;5.70;;;4.03;;
58697;SDS011;44475;53.206;-6.106;2023-06-14T06:43:44;6.28;;;4.20;;
58697;SDS011;44475;53.206;-6.106;2023-06-14T06:46:10;6.45;;;4.47;;
58697;SDS011;44475;53.206;-6.106;2023-06-14T06:48:37;7.43;;;4.20;;
58697;SDS011;44475;53.206;-6.106;2023-06-14T06:51:04;4.90;;;4.20;;
58697;SDS011;44475;53.206;-6.106;2023-06-14T06:53:30;7.68;;;3.95;;
58697;SDS011;44475;53.206;-6.106;2023-06-14T06:55:57;6.25;;;4.13;;
58697;SDS011;44475;53.206;-6.106;2023-06-14T06:58:23;7.65;;;4.13;;
58697;SDS011;44475;53.206;-6.106;2023-06-14T07:00:49;7.78;;;4.40;;
58697;SDS011;44475;53.206;-6.106;2023-06-14T07:03:16;7.32;;;4.32;;
58697;SDS011;44475;53.206;-6.106;2023-06-14T07:05:43;6.13;;;4.13;;
58697;SDS011;44475;53.206;-6.106;2023-06-14T07:08:09;7.43;;;4.30;;
58697;SDS011;44475;53.206;-6.106;2023-06-14T07:10:35;6.20;;;4.32;;
58697;SDS011;44475;53.206;-6.106;2023-06-14T07:13:02;7.70;;;4.28;;
58697;SDS011;44475;53.206;-6.106;2023-06-14T07:15:29;5.88;;;4.13;;
58697;SDS011;44475;53.206;-6.106;2023-06-14T07:17:55;7.18;;;4.55;;
58697;SDS011;44475;53.206;-6.106;2023-06-14T07:20:24;7.13;;;4.20;;
58697;SDS011;44475;53.206;-6.106;2023-06-14T07:22:51;6.53;;;3.97;;
58697;SDS011;44475;53.206;-6.106;2023-06-14T07:25:17;7.80;;;4.28;;
58697;SDS011;44475;53.206;-6.106;2023-06-14T07:27:45;6.38;;;3.88;;
58697;SDS011;44475;53.206;-6.106;2023-06-14T07:30:11;7.57;;;4.22;;
58697;SDS011;44475;53.206;-6.106;2023-06-14T07:32:38;8.18;;;4.30;;
58697;SDS011;44475;53.206;-6.106;2023-06-14T07:35:05;6.63;;;4.18;;
58697;SDS011;44475;53.206;-6.106;2023-06-14T07:37:31;7.63;;;4.10;;
58697;SDS011;44475;53.206;-6.106;2023-06-14T07:39:58;6.60;;;3.80;;
58697;SDS011;44475;53.206;-6.106;2023-06-14T07:42:24;6.10;;;3.95;;
58697;SDS011;44475;53.206;-6.106;2023-06-14T07:44:51;9.43;;;5.03;;
58697;SDS011;44475;53.206;-6.106;2023-06-14T07:47:18;6.13;;;4.28;;
58697;SDS011;44475;53.206;-6.106;2023-06-14T07:49:44;5.35;;;3.88;;
58697;SDS011;44475;53.206;-6.106;2023-06-14T07:52:10;6.72;;;4.18;;
58697;SDS011;44475;53.206;-6.106;2023-06-14T07:54:38;9.38;;;4.28;;
58697;SDS011;44475;53.206;-6.106;2023-06-14T07:57:06;8.32;;;4.10;;
58697;SDS011;44475;53.206;-6.106;2023-06-14T07:59:32;6.93;;;4.03;;
58697;SDS011;44475;53.206;-6.106;2023-06-14T08:01:58;7.82;;;4.28;;
58697;SDS011;44475;53.206;-6.106;2023-06-14T08:04:25;6.05;;;4.20;;
58697;SDS011;44475;53.206;-6.106;2023-06-14T08:06:51;6.20;;;3.92;;
58697;SDS011;44475;53.206;-6.106;2023-06-14T08:09:17;7.13;;;4.00;;
58697;SDS011;44475;53.206;-6.106;2023-06-14T08:11:44;5.45;;;4.00;;
58697;SDS011;44475;53.206;-6.106;2023-06-14T08:14:10;5.72;;;4.20;;
58697;SDS011;44475;53.206;-6.106;2023-06-14T08:16:37;6.10;;;3.83;;
58697;SDS011;44475;53.206;-6.106;2023-06-14T08:19:03;5.55;;;4.00;;
58697;SDS011;44475;53.206;-6.106;2023-06-14T08:21:29;6.88;;;4.00;;
58697;SDS011;44475;53.206;-6.106;2023-06-14T08:23:58;5.63;;;4.07;;
58697;SDS011;44475;53.206;-6.106;2023-06-14T08:26:25;8.18;;;3.95;;
58697;SDS011;44475;53.206;-6.106;2023-06-14T08:28:54;5.78;;;3.95;;
58697;SDS011;44475;53.206;-6.106;2023-06-14T08:31:21;5.97;;;3.78;;
58697;SDS011;44475;53.206;-6.106;2023-06-14T08:33:49;6.13;;;3.80;;
58697;SDS011;44475;53.206;-6.106;2023-06-14T08:36:15;4.97;;;3.72;;
58697;SDS011;44475;53.206;-6.106;2023-06-14T08:38:41;7.30;;;3.95;;
58697;SDS011;44475;53.206;-6.106;2023-06-14T08:41:08;4.78;;;3.90;;
58697;SDS011;44475;53.206;-6.106;2023-06-14T08:43:41;5.50;;;3.92;;
58697;SDS011;44475;53.206;-6.106;2023-06-14T08:46:07;4.30;;;3.72;;
58697;SDS011;44475;53.206;-6.106;2023-06-14T08:48:36;6.07;;;3.80;;
58697;SDS011;44475;53.206;-6.106;2023-06-14T08:51:02;5.72;;;3.80;;
58697;SDS011;44475;53.206;-6.106;2023-06-14T08:53:31;5.28;;;3.80;;
58697;SDS011;44475;53.206;-6.106;2023-06-14T08:56:02;5.38;;;3.65;;
58697;SDS011;44475;53.206;-6.106;2023-06-14T08:58:30;5.25;;;3.80;;
58697;SDS011;44475;53.206;-6.106;2023-06-14T09:00:59;5.90;;;4.00;;
58697;SDS011;44475;53.206;-6.106;2023-06-14T09:03:30;6.40;;;3.97;;
58697;SDS011;44475;53.206;-6.106;2023-06-14T09:05:58;6.43;;;3.75;;
58697;SDS011;44475;53.206;-6.106;2023-06-14T09:08:25;5.38;;;3.72;;
58697;SDS011;44475;53.206;-6.106;2023-06-14T09:10:57;4.25;;;3.65;;
58697;SDS011;44475;53.206;-6.106;2023-06-14T09:13:26;5.43;;;3.80;;
58697;SDS011;44475;53.206;-6.106;2023-06-14T09:15:53;4.68;;;3.53;;
58697;SDS011;44475;53.206;-6.106;2023-06-14T09:18:19;4.70;;;3.60;;
58697;SDS011;44475;53.206;-6.106;2023-06-14T09:20:46;4.80;;;3.80;;
58697;SDS011;44475;53.206;-6.106;2023-06-14T09:23:13;5.68;;;3.72;;
58697;SDS011;44475;53.206;-6.106;2023-06-14T09:25:45;7.05;;;3.97;;
58697;SDS011;44475;53.206;-6.106;2023-06-14T09:28:12;6.10;;;3.60;;
58697;SDS011;44475;53.206;-6.106;2023-06-14T09:30:39;4.63;;;3.47;;
58697;SDS011;44475;53.206;-6.106;2023-06-14T09:33:05;4.50;;;3.67;;
58697;SDS011;44475;53.206;-6.106;2023-06-14T09:35:32;5.13;;;3.60;;
58697;SDS011;44475;53.206;-6.106;2023-06-14T09:37:59;5.43;;;3.80;;
58697;SDS011;44475;53.206;-6.106;2023-06-14T09:40:26;4.85;;;3.42;;
58697;SDS011;44475;53.206;-6.106;2023-06-14T09:42:52;4.75;;;3.53;;
58697;SDS011;44475;53.206;-6.106;2023-06-14T09:45:20;4.60;;;3.47;;
58697;SDS011;44475;53.206;-6.106;2023-06-14T09:47:48;4.88;;;3.33;;
58697;SDS011;44475;53.206;-6.106;2023-06-14T09:50:15;4.88;;;3.53;;
58697;SDS011;44475;53.206;-6.106;2023-06-14T09:52:43;4.70;;;3.60;;
58697;SDS011;44475;53.206;-6.106;2023-06-14T09:55:12;4.55;;;3.53;;
58697;SDS011;44475;53.206;-6.106;2023-06-14T09:57:41;5.80;;;3.90;;
58697;SDS011;44475;53.206;-6.106;2023-06-14T10:00:11;4.38;;;3.45;;
58697;SDS011;44475;53.206;-6.106;2023-06-14T10:02:40;4.20;;;3.20;;
58697;SDS011;44475;53.206;-6.106;2023-06-14T10:05:12;5.18;;;3.70;;
58697;SDS011;44475;53.206;-6.106;2023-06-14T10:07:52;4.20;;;3.40;;
58697;SDS011;44475;53.206;-6.106;2023-06-14T10:10:25;5.00;;;3.40;;
58697;SDS011;44475;53.206;-6.106;2023-06-14T10:12:51;4.40;;;3.40;;
58697;SDS011;44475;53.206;-6.106;2023-06-14T10:15:22;5.03;;;3.70;;
58697;SDS011;44475;53.206;-6.106;2023-06-14T10:18:01;3.90;;;3.20;;
58697;SDS011;44475;53.206;-6.106;2023-06-14T10:20:33;4.47;;;3.30;;
58697;SDS011;44475;53.206;-6.106;2023-06-14T10:23:15;5.03;;;3.20;;
58697;SDS011;44475;53.206;-6.106;2023-06-14T10:25:54;4.93;;;3.40;;
58697;SDS011;44475;53.206;-6.106;2023-06-14T10:28:25;4.47;;;3.30;;
58697;SDS011;44475;53.206;-6.106;2023-06-14T10:31:04;4.95;;;3.40;;
58697;SDS011;44475;53.206;-6.106;2023-06-14T10:33:50;4.40;;;3.25;;
58697;SDS011;44475;53.206;-6.106;2023-06-14T10:41:33;4.13;;;3.35;;
58697;SDS011;44475;53.206;-6.106;2023-06-14T10:44:30;4.50;;;3.30;;
58697;SDS011;44475;53.206;-6.106;2023-06-14T10:46:58;4.53;;;3.22;;
58697;SDS011;44475;53.206;-6.106;2023-06-14T10:49:44;4.13;;;3.10;;
58697;SDS011;44475;53.206;-6.106;2023-06-14T10:52:17;4.47;;;3.13;;
58697;SDS011;44475;53.206;-6.106;2023-06-14T10:54:59;5.85;;;3.22;;
58697;SDS011;44475;53.206;-6.106;2023-06-14T10:57:34;4.90;;;3.30;;
58697;SDS011;44475;53.206;-6.106;2023-06-14T11:00:02;4.50;;;3.10;;
58697;SDS011;44475;53.206;-6.106;2023-06-14T11:05:15;5.35;;;2.95;;
58697;SDS011;44475;53.206;-6.106;2023-06-14T11:07:53;4.70;;;3.30;;
58697;SDS011;44475;53.206;-6.106;2023-06-14T11:10:41;4.57;;;2.90;;
58697;SDS011;44475;53.206;-6.106;2023-06-14T11:13:10;5.57;;;3.15;;
58697;SDS011;44475;53.206;-6.106;2023-06-14T11:15:37;4.28;;;2.90;;
58697;SDS011;44475;53.206;-6.106;2023-06-14T11:18:08;4.85;;;3.08;;
58697;SDS011;44475;53.206;-6.106;2023-06-14T11:20:35;4.65;;;3.30;;
58697;SDS011;44475;53.206;-6.106;2023-06-14T11:23:02;4.78;;;3.22;;
58697;SDS011;44475;53.206;-6.106;2023-06-14T11:25:29;4.07;;;3.00;;
58697;SDS011;44475;53.206;-6.106;2023-06-14T11:27:56;5.47;;;3.00;;
58697;SDS011;44475;53.206;-6.106;2023-06-14T11:30:23;4.75;;;3.20;;
58697;SDS011;44475;53.206;-6.106;2023-06-14T11:32:51;4.55;;;3.13;;
58697;SDS011;44475;53.206;-6.106;2023-06-14T11:35:19;4.25;;;2.80;;
58697;SDS011;44475;53.206;-6.106;2023-06-14T11:37:54;4.40;;;2.95;;
58697;SDS011;44475;53.206;-6.106;2023-06-14T11:40:25;4.95;;;3.10;;
58697;SDS011;44475;53.206;-6.106;2023-06-14T11:42:59;3.95;;;2.90;;
58697;SDS011;44475;53.206;-6.106;2023-06-14T11:45:26;4.93;;;2.92;;
58697;SDS011;44475;53.206;-6.106;2023-06-14T11:47:55;4.85;;;2.97;;
58697;SDS011;44475;53.206;-6.106;2023-06-14T11:50:21;6.07;;;3.20;;
58697;SDS011;44475;53.206;-6.106;2023-06-14T11:52:55;4.28;;;3.10;;
58697;SDS011;44475;53.206;-6.106;2023-06-14T11:55:22;4.18;;;2.90;;
58697;SDS011;44475;53.206;-6.106;2023-06-14T11:57:50;4.28;;;3.03;;
58697;SDS011;44475;53.206;-6.106;2023-06-14T12:00:18;5.93;;;2.85;;
58697;SDS011;44475;53.206;-6.106;2023-06-14T12:02:55;3.78;;;2.80;;
58697;SDS011;44475;53.206;-6.106;2023-06-14T12:05:22;5.40;;;3.15;;
58697;SDS011;44475;53.206;-6.106;2023-06-14T12:07:50;4.82;;;3.17;;
58697;SDS011;44475;53.206;-6.106;2023-06-14T12:10:24;5.10;;;3.40;;
58697;SDS011;44475;53.206;-6.106;2023-06-14T12:12:50;5.68;;;3.30;;
58697;SDS011;44475;53.206;-6.106;2023-06-14T12:15:21;5.22;;;3.05;;
58697;SDS011;44475;53.206;-6.106;2023-06-14T12:17:47;4.40;;;3.00;;
58697;SDS011;44475;53.206;-6.106;2023-06-14T12:20:14;3.90;;;2.95;;
58697;SDS011;44475;53.206;-6.106;2023-06-14T12:22:52;4.32;;;2.90;;
58697;SDS011;44475;53.206;-6.106;2023-06-14T12:27:58;4.60;;;3.17;;
58697;SDS011;44475;53.206;-6.106;2023-06-14T12:30:28;4.05;;;3.10;;
58697;SDS011;44475;53.206;-6.106;2023-06-14T12:32:55;5.07;;;3.22;;
58697;SDS011;44475;53.206;-6.106;2023-06-14T12:35:21;3.92;;;2.90;;
58697;SDS011;44475;53.206;-6.106;2023-06-14T12:40:41;5.03;;;2.90;;
58697;SDS011;44475;53.206;-6.106;2023-06-14T12:43:08;5.25;;;3.30;;
58697;SDS011;44475;53.206;-6.106;2023-06-14T12:45:34;4.70;;;3.17;;
58697;SDS011;44475;53.206;-6.106;2023-06-14T12:48:00;4.45;;;2.88;;
58697;SDS011;44475;53.206;-6.106;2023-06-14T12:50:27;4.57;;;3.00;;
58697;SDS011;44475;53.206;-6.106;2023-06-14T12:52:53;6.00;;;3.20;;
58697;SDS011;44475;53.206;-6.106;2023-06-14T12:55:20;4.97;;;2.92;;
58697;SDS011;44475;53.206;-6.106;2023-06-14T12:57:46;5.20;;;2.90;;
58697;SDS011;44475;53.206;-6.106;2023-06-14T13:00:14;5.00;;;2.90;;
58697;SDS011;44475;53.206;-6.106;2023-06-14T13:02:43;4.70;;;3.05;;
58697;SDS011;44475;53.206;-6.106;2023-06-14T13:05:10;3.83;;;2.60;;
58697;SDS011;44475;53.206;-6.106;2023-06-14T13:07:36;5.18;;;2.88;;
58697;SDS011;44475;53.206;-6.106;2023-06-14T13:10:03;5.40;;;3.00;;
58697;SDS011;44475;53.206;-6.106;2023-06-14T13:12:29;4.55;;;3.03;;
58697;SDS011;44475;53.206;-6.106;2023-06-14T13:14:56;4.38;;;2.90;;
58697;SDS011;44475;53.206;-6.106;2023-06-14T13:17:22;5.32;;;3.20;;
58697;SDS011;44475;53.206;-6.106;2023-06-14T13:19:48;4.15;;;3.10;;
58697;SDS011;44475;53.206;-6.106;2023-06-14T13:22:15;4.03;;;2.80;;
58697;SDS011;44475;53.206;-6.106;2023-06-14T13:24:41;4.80;;;2.90;;
58697;SDS011;44475;53.206;-6.106;2023-06-14T13:27:07;5.07;;;3.05;;
58697;SDS011;44475;53.206;-6.106;2023-06-14T13:29:34;4.65;;;3.15;;
58697;SDS011;44475;53.206;-6.106;2023-06-14T13:32:01;4.35;;;2.97;;
58697;SDS011;44475;53.206;-6.106;2023-06-14T13:34:28;4.90;;;2.92;;
58697;SDS011;44475;53.206;-6.106;2023-06-14T13:36:56;4.47;;;2.92;;
58697;SDS011;44475;53.206;-6.106;2023-06-14T13:39:24;4.50;;;2.78;;
58697;SDS011;44475;53.206;-6.106;2023-06-14T13:41:50;4.00;;;2.78;;
58697;SDS011;44475;53.206;-6.106;2023-06-14T13:44:17;4.35;;;2.80;;
58697;SDS011;44475;53.206;-6.106;2023-06-14T13:46:46;4.38;;;2.80;;
58697;SDS011;44475;53.206;-6.106;2023-06-14T13:49:12;3.65;;;2.50;;
58697;SDS011;44475;53.206;-6.106;2023-06-14T13:51:39;3.80;;;2.53;;
58697;SDS011;44475;53.206;-6.106;2023-06-14T13:54:05;3.97;;;2.60;;
58697;SDS011;44475;53.206;-6.106;2023-06-14T13:56:31;4.45;;;2.80;;
58697;SDS011;44475;53.206;-6.106;2023-06-14T13:58:58;4.75;;;3.08;;
58697;SDS011;44475;53.206;-6.106;2023-06-14T14:01:25;4.22;;;3.10;;
58697;SDS011;44475;53.206;-6.106;2023-06-14T14:03:54;4.22;;;2.80;;
58697;SDS011;44475;53.206;-6.106;2023-06-14T14:06:20;5.63;;;2.70;;
58697;SDS011;44475;53.206;-6.106;2023-06-14T14:08:46;5.40;;;2.65;;
58697;SDS011;44475;53.206;-6.106;2023-06-14T14:11:13;3.75;;;2.60;;
58697;SDS011;44475;53.206;-6.106;2023-06-14T14:13:41;4.43;;;2.67;;
58697;SDS011;44475;53.206;-6.106;2023-06-14T14:16:08;2.70;;;2.10;;
58697;SDS011;44475;53.206;-6.106;2023-06-14T14:18:35;4.85;;;2.97;;
58697;SDS011;44475;53.206;-6.106;2023-06-14T14:21:02;3.75;;;2.70;;
58697;SDS011;44475;53.206;-6.106;2023-06-14T14:23:28;4.97;;;2.60;;
58697;SDS011;44475;53.206;-6.106;2023-06-14T14:25:55;4.55;;;2.70;;
58697;SDS011;44475;53.206;-6.106;2023-06-14T14:28:22;5.30;;;2.80;;
58697;SDS011;44475;53.206;-6.106;2023-06-14T14:30:48;5.22;;;2.70;;
58697;SDS011;44475;53.206;-6.106;2023-06-14T14:33:15;3.92;;;2.53;;
58697;SDS011;44475;53.206;-6.106;2023-06-14T14:35:42;6.50;;;2.80;;
58697;SDS011;44475;53.206;-6.106;2023-06-14T14:38:15;5.82;;;2.70;;
58697;SDS011;44475;53.206;-6.106;2023-06-14T14:40:42;4.03;;;2.70;;
58697;SDS011;44475;53.206;-6.106;2023-06-14T14:43:10;4.97;;;2.90;;
58697;SDS011;44475;53.206;-6.106;2023-06-14T14:45:36;4.93;;;2.60;;
58697;SDS011;44475;53.206;-6.106;2023-06-14T14:48:03;5.25;;;2.83;;
58697;SDS011;44475;53.206;-6.106;2023-06-14T14:50:30;4.57;;;2.60;;
58697;SDS011;44475;53.206;-6.106;2023-06-14T14:52:56;4.38;;;2.90;;